Time;durP1;ratioP1;P1;durP2;ratioP2;P2;SDS_P1;SDS_P2;PMS_P1;PMS_P2;Temp;Humidity;BMP_temperature;BMP_pressure;BME280_temperature;BME280_humidity;BME280_pressure;Samples;Min_cycle;Max_cycle;Signal;HPM_P1;HPM_P2
2021/08/17 00:01:35;;;;;;;8.60;3.00;;;;;;;25.44;67.62;99533.00;5090596;28;20048;-64
2021/08/17 00:04:00;;;;;;;8.82;3.85;;;;;;;25.36;68.29;99531.50;5091084;28;20187;-64
2021/08/17 00:06:25;;;;;;;6.60;3.05;;;;;;;25.28;68.72;99537.34;5090588;28;20043;-64
2021/08/17 00:08:51;;;;;;;5.13;3.53;;;;;;;25.21;69.31;99531.19;5090659;28;20067;-64
2021/08/17 00:11:17;;;;;;;4.15;3.13;;;;;;;25.09;69.94;99524.97;5090514;28;20023;-64
2021/08/17 00:13:43;;;;;;;8.55;2.95;;;;;;;25.05;70.67;99539.41;5090531;28;20103;-63
2021/08/17 00:16:09;;;;;;;5.15;3.30;;;;;;;25.00;70.97;99548.41;5090579;28;20020;-63
2021/08/17 00:18:34;;;;;;;5.53;3.33;;;;;;;24.94;71.46;99541.13;5090550;28;20028;-63
2021/08/17 00:21:00;;;;;;;5.90;3.00;;;;;;;24.85;71.81;99528.06;5090353;28;20024;-63
2021/08/17 00:23:25;;;;;;;6.15;3.25;;;;;;;24.80;71.93;99525.22;5090278;28;20028;-63
2021/08/17 00:25:51;;;;;;;6.38;3.00;;;;;;;24.80;71.89;99537.03;5090372;28;20106;-62
2021/08/17 00:28:16;;;;;;;6.18;3.00;;;;;;;24.68;72.31;99533.50;5090381;28;20016;-63
2021/08/17 00:30:42;;;;;;;3.50;2.42;;;;;;;24.70;72.28;99530.53;5090161;28;20073;-62
2021/08/17 00:33:07;;;;;;;5.55;2.60;;;;;;;24.61;72.49;99524.56;5090277;28;20418;-62
2021/08/17 00:35:36;;;;;;;4.80;2.72;;;;;;;24.58;72.51;99536.00;5090273;28;20023;-63
2021/08/17 00:38:02;;;;;;;5.20;2.65;;;;;;;24.54;72.80;99537.59;5090482;28;20423;-63
2021/08/17 00:40:28;;;;;;;3.60;2.13;;;;;;;24.47;73.01;99549.75;5090033;28;20040;-64
2021/08/17 00:42:54;;;;;;;5.45;2.22;;;;;;;24.41;73.27;99557.06;5090567;28;20111;-64
2021/08/17 00:45:22;;;;;;;3.60;1.77;;;;;;;24.34;73.56;99562.66;5090198;28;20107;-64
2021/08/17 00:47:49;;;;;;;5.72;1.92;;;;;;;24.29;73.89;99564.47;5089456;28;20020;-64
2021/08/17 00:50:14;;;;;;;4.35;1.98;;;;;;;24.23;74.31;99566.25;5090036;28;20390;-63
2021/08/17 00:52:41;;;;;;;3.83;1.90;;;;;;;24.13;74.68;99546.03;5089992;28;20107;-64
2021/08/17 00:55:09;;;;;;;3.63;2.00;;;;;;;24.15;75.02;99547.44;5090451;28;20372;-64
2021/08/17 00:57:36;;;;;;;3.58;1.95;;;;;;;24.09;75.16;99540.16;5090149;28;20480;-64
2021/08/17 01:00:08;;;;;;;5.15;2.15;;;;;;;24.00;75.50;99535.31;5090259;28;20055;-63
2021/08/17 01:02:33;;;;;;;4.53;2.20;;;;;;;23.98;76.11;99545.66;5090154;28;20391;-63
2021/08/17 01:05:00;;;;;;;4.55;2.33;;;;;;;23.92;76.41;99550.16;5089836;28;20024;-64
2021/08/17 01:07:25;;;;;;;3.28;1.75;;;;;;;23.89;76.80;99567.09;5089953;28;20435;-63
2021/08/17 01:09:51;;;;;;;2.78;1.80;;;;;;;23.80;77.45;99571.25;5071996;28;20032;-63
2021/08/17 01:12:16;;;;;;;4.03;2.10;;;;;;;23.79;77.82;99575.06;5090109;28;20475;-64
2021/08/17 01:14:42;;;;;;;3.70;1.70;;;;;;;23.66;78.33;99580.78;5089809;28;20038;-63
2021/08/17 01:17:07;;;;;;;2.75;2.05;;;;;;;23.62;78.41;99596.00;5090350;28;20028;-64
2021/08/17 01:19:35;;;;;;;4.05;1.75;;;;;;;23.51;79.08;99591.34;5089863;28;20024;-63
2021/08/17 01:22:01;;;;;;;4.93;1.70;;;;;;;23.58;78.98;99633.16;5090133;28;20527;-63
2021/08/17 01:24:26;;;;;;;4.05;2.10;;;;;;;23.51;79.12;99637.88;5089991;28;20095;-63
2021/08/17 01:26:52;;;;;;;4.13;1.70;;;;;;;23.49;79.35;99650.13;5089918;28;20073;-64
2021/08/17 01:29:18;;;;;;;3.22;2.17;;;;;;;23.51;79.29;99659.78;5089928;28;20059;-63
2021/08/17 01:31:44;;;;;;;2.38;1.70;;;;;;;23.48;78.76;99659.44;5088277;28;20024;-63
2021/08/17 01:34:09;;;;;;;3.42;1.65;;;;;;;23.40;78.76;99646.91;5089792;28;20031;-63
2021/08/17 01:36:35;;;;;;;3.58;2.25;;;;;;;23.39;78.01;99637.03;5089757;28;20028;-64
2021/08/17 01:39:00;;;;;;;4.85;2.20;;;;;;;23.34;77.01;99614.97;5089854;28;20036;-64
2021/08/17 01:41:26;;;;;;;4.43;2.50;;;;;;;23.37;74.83;99627.34;5089487;28;20023;-64
2021/08/17 01:43:52;;;;;;;3.28;1.95;;;;;;;23.29;74.32;99638.66;5089906;28;20399;-63
2021/08/17 01:46:18;;;;;;;3.25;2.45;;;;;;;23.29;72.92;99652.34;5089574;28;20448;-63
2021/08/17 01:48:44;;;;;;;4.35;2.65;;;;;;;23.21;71.63;99641.69;5089454;28;20479;-62
2021/08/17 01:51:10;;;;;;;6.75;3.03;;;;;;;23.15;70.92;99637.16;5089550;28;20020;-63
2021/08/17 01:53:37;;;;;;;3.97;2.75;;;;;;;23.07;70.00;99621.88;5089717;28;20055;-63
2021/08/17 01:56:11;;;;;;;3.45;2.85;;;;;;;23.02;69.62;99616.25;5089761;28;20047;-63
2021/08/17 01:58:37;;;;;;;4.65;2.85;;;;;;;22.98;69.61;99604.13;5090260;28;20030;-62
2021/08/17 02:01:04;;;;;;;4.18;2.80;;;;;;;22.96;68.82;99595.31;5092835;28;20066;-63
2021/08/17 02:03:30;;;;;;;5.38;2.72;;;;;;;22.87;69.21;99591.25;5092853;28;20560;-61
2021/08/17 02:05:56;;;;;;;6.07;3.35;;;;;;;22.86;68.73;99592.28;5108787;28;20106;-61
2021/08/17 02:08:22;;;;;;;7.15;3.20;;;;;;;22.75;68.75;99586.78;5093158;28;20020;-61
2021/08/17 02:10:47;;;;;;;7.30;3.30;;;;;;;22.76;68.72;99600.22;5092747;28;20047;-61
2021/08/17 02:13:13;;;;;;;4.22;2.78;;;;;;;22.67;68.81;99593.41;5092943;28;20082;-62
2021/08/17 02:15:39;;;;;;;4.10;3.15;;;;;;;22.68;69.18;99595.06;5092844;28;20108;-62
2021/08/17 02:18:04;;;;;;;6.45;3.03;;;;;;;22.60;69.13;99591.81;5091742;28;20115;-62
2021/08/17 02:20:30;;;;;;;5.28;3.20;;;;;;;22.59;69.22;99596.44;5092781;28;20051;-61
2021/08/17 02:22:55;;;;;;;7.05;3.33;;;;;;;22.52;69.45;99587.50;5092750;28;20046;-62
2021/08/17 02:25:20;;;;;;;8.00;3.20;;;;;;;22.48;69.52;99591.72;5092687;28;20032;-61
2021/08/17 02:27:46;;;;;;;5.20;2.97;;;;;;;22.48;69.61;99605.38;5092316;28;20027;-62
2021/08/17 02:30:12;;;;;;;5.63;3.28;;;;;;;22.46;69.61;99602.03;5092618;28;20032;-62
2021/08/17 02:32:37;;;;;;;7.95;3.40;;;;;;;22.44;69.66;99606.06;5093119;28;20024;-61
2021/08/17 02:35:04;;;;;;;6.80;3.30;;;;;;;22.38;70.02;99614.09;5092431;28;20464;-61
2021/08/17 02:37:29;;;;;;;6.00;3.03;;;;;;;22.33;69.67;99599.47;5092399;28;20028;-61
2021/08/17 02:39:55;;;;;;;4.80;3.03;;;;;;;22.39;69.65;99617.69;5092512;28;20059;-61
2021/08/17 02:42:20;;;;;;;7.30;2.90;;;;;;;22.33;69.98;99613.13;5092335;28;20112;-62
2021/08/17 02:44:46;;;;;;;5.45;3.40;;;;;;;22.30;70.30;99614.41;5092086;28;20032;-62
2021/08/17 02:47:11;;;;;;;4.80;3.30;;;;;;;22.29;70.31;99623.66;5092326;28;20032;-62
2021/08/17 02:49:37;;;;;;;5.30;3.30;;;;;;;22.25;70.54;99643.50;5107988;28;20032;-62
2021/08/17 02:52:04;;;;;;;7.18;3.20;;;;;;;22.20;70.91;99644.16;5092288;28;20105;-61
2021/08/17 02:54:35;;;;;;;5.45;3.45;;;;;;;22.16;71.22;99659.31;5092109;28;20028;-61
2021/08/17 02:57:01;;;;;;;6.25;3.50;;;;;;;22.15;71.02;99668.56;5092083;28;20543;-62
2021/08/17 02:59:27;;;;;;;4.95;2.83;;;;;;;22.12;71.07;99669.03;5092111;28;20447;-61
2021/08/17 03:01:52;;;;;;;5.10;3.17;;;;;;;22.05;71.13;99653.75;5091795;28;20059;-60
2021/08/17 03:04:18;;;;;;;6.10;3.00;;;;;;;22.10;71.29;99679.34;5073759;28;20039;-60
2021/08/17 03:06:43;;;;;;;6.30;3.30;;;;;;;22.09;71.23;99683.13;5092148;28;20016;-62
2021/08/17 03:09:09;;;;;;;6.32;3.00;;;;;;;22.08;71.44;99683.34;5092616;28;20480;-61
2021/08/17 03:11:34;;;;;;;7.03;3.85;;;;;;;22.05;71.15;99708.38;5091294;28;20028;-60
2021/08/17 03:14:00;;;;;;;5.70;3.33;;;;;;;22.00;71.51;99736.38;5092170;28;20081;-61
2021/08/17 03:16:26;;;;;;;6.40;3.72;;;;;;;21.98;71.60;99767.69;5091728;28;20112;-61
2021/08/17 03:18:53;;;;;;;8.85;3.60;;;;;;;21.95;71.99;99782.63;5091586;28;20102;-61
2021/08/17 03:21:19;;;;;;;6.28;3.30;;;;;;;21.92;71.99;99776.75;5091737;28;20466;-62
2021/08/17 03:23:45;;;;;;;7.65;3.92;;;;;;;21.88;72.19;99765.47;5091497;28;20107;-62
2021/08/17 03:26:10;;;;;;;7.28;3.85;;;;;;;21.86;72.34;99769.47;5092214;28;20062;-62
2021/08/17 03:28:36;;;;;;;4.57;3.03;;;;;;;21.86;72.35;99783.94;5091331;28;20020;-62
2021/08/17 03:31:02;;;;;;;8.35;3.60;;;;;;;21.81;72.58;99778.31;5091641;28;20028;-62
2021/08/17 03:33:27;;;;;;;6.90;3.67;;;;;;;21.88;72.09;99775.53;5107008;28;20095;-62
2021/08/17 03:35:53;;;;;;;5.38;3.75;;;;;;;21.83;72.52;99778.09;5090626;28;20024;-62
2021/08/17 03:38:19;;;;;;;7.65;3.58;;;;;;;21.80;72.41;99773.91;5091459;28;20144;-62
2021/08/17 03:40:45;;;;;;;5.28;3.55;;;;;;;21.77;72.70;99776.25;5091289;28;20028;-62
2021/08/17 03:43:11;;;;;;;7.50;3.58;;;;;;;21.80;72.24;99781.28;5091435;28;20505;-62
2021/08/17 03:45:36;;;;;;;7.53;3.90;;;;;;;21.70;72.45;99783.63;5091199;28;20464;-62
2021/08/17 03:48:02;;;;;;;9.13;3.95;;;;;;;21.65;72.98;99792.44;5091361;28;20885;-62
2021/08/17 03:50:27;;;;;;;5.93;3.80;;;;;;;21.63;73.20;99793.69;5091504;28;20023;-62
2021/08/17 03:52:53;;;;;;;7.53;4.32;;;;;;;21.59;73.46;99792.47;5091589;28;20024;-62
2021/08/17 03:55:20;;;;;;;8.00;4.72;;;;;;;21.55;73.63;99792.09;5091596;28;20026;-62
2021/08/17 03:57:46;;;;;;;6.95;4.25;;;;;;;21.59;73.59;99803.38;5091319;28;20388;-63
2021/08/17 04:00:14;;;;;;;9.30;4.68;;;;;;;21.60;73.76;99811.38;5091431;28;20044;-62
2021/08/17 04:02:41;;;;;;;9.57;4.65;;;;;;;21.62;73.80;99811.16;5091697;28;20123;-62
2021/08/17 04:05:07;;;;;;;9.38;4.45;;;;;;;21.58;73.77;99786.19;5091808;28;20012;-62
2021/08/17 04:07:33;;;;;;;6.05;4.10;;;;;;;21.50;74.16;99794.63;5091289;28;20499;-62
2021/08/17 04:09:59;;;;;;;9.60;4.85;;;;;;;21.56;74.57;99809.28;5091121;28;20032;-62
2021/08/17 04:12:25;;;;;;;6.82;4.28;;;;;;;21.51;74.44;99803.66;5072579;28;20032;-62
2021/08/17 04:14:50;;;;;;;9.63;4.40;;;;;;;21.58;74.40;99807.19;5090832;28;20357;-62
2021/08/17 04:17:16;;;;;;;8.63;4.53;;;;;;;21.58;74.28;99801.72;5090722;28;20024;-62
2021/08/17 04:19:41;;;;;;;9.30;4.60;;;;;;;21.63;73.29;99786.38;5090975;28;20089;-60
2021/08/17 04:22:07;;;;;;;12.05;5.10;;;;;;;21.59;73.37;99793.31;5090840;28;20027;-60
2021/08/17 04:24:33;;;;;;;7.35;3.95;;;;;;;21.64;73.21;99795.41;5090409;28;20365;-61
2021/08/17 04:26:58;;;;;;;8.35;4.63;;;;;;;21.60;73.16;99796.91;5090320;28;20028;-61
2021/08/17 04:29:24;;;;;;;7.20;4.63;;;;;;;21.68;72.81;99822.03;5090573;28;20490;-62
2021/08/17 04:31:49;;;;;;;8.07;4.35;;;;;;;21.66;72.25;99801.47;5090909;28;20073;-61
2021/08/17 04:34:15;;;;;;;8.95;5.32;;;;;;;21.73;72.42;99815.97;5090850;28;20043;-62
2021/08/17 04:36:40;;;;;;;8.18;4.55;;;;;;;21.83;72.06;99830.78;5090393;28;20023;-61
2021/08/17 04:39:06;;;;;;;7.72;4.57;;;;;;;21.86;71.91;99837.72;5090540;28;20028;-61
2021/08/17 04:41:31;;;;;;;8.68;4.32;;;;;;;21.86;71.49;99824.09;5090395;28;20036;-63
2021/08/17 04:43:57;;;;;;;7.07;4.90;;;;;;;21.98;70.93;99825.03;5072649;28;20020;-62
2021/08/17 04:46:22;;;;;;;11.27;4.32;;;;;;;22.05;70.40;99804.81;5090284;28;20391;-63
2021/08/17 04:48:50;;;;;;;7.45;4.20;;;;;;;22.11;70.12;99803.09;5090543;28;20099;-62
2021/08/17 04:51:15;;;;;;;6.68;4.75;;;;;;;22.12;69.71;99788.41;5106248;28;20092;-63
2021/08/17 04:53:41;;;;;;;7.07;4.05;;;;;;;22.27;69.42;99769.75;5072149;28;20107;-63
2021/08/17 04:56:06;;;;;;;7.43;4.47;;;;;;;22.34;68.83;99768.66;5090224;28;20077;-62
2021/08/17 04:58:32;;;;;;;10.38;4.57;;;;;;;22.44;67.84;99765.41;5090173;28;20103;-62
2021/08/17 05:00:58;;;;;;;8.65;4.90;;;;;;;22.44;67.50;99765.41;5090042;28;20056;-61
2021/08/17 05:03:23;;;;;;;8.15;4.35;;;;;;;22.58;66.77;99794.34;5090087;28;20032;-62
2021/08/17 05:05:49;;;;;;;5.82;4.15;;;;;;;22.64;66.34;99828.13;5071830;28;20063;-61
2021/08/17 05:08:15;;;;;;;8.05;4.40;;;;;;;22.66;66.07;99834.22;5090446;28;20107;-61
2021/08/17 05:10:40;;;;;;;7.55;4.38;;;;;;;22.61;66.25;99832.16;5089881;28;20039;-62
2021/08/17 05:13:05;;;;;;;8.13;4.32;;;;;;;22.62;66.34;99830.25;5090275;28;20020;-61
2021/08/17 05:15:32;;;;;;;11.25;4.45;;;;;;;22.70;66.23;99839.00;5089942;28;20024;-61
2021/08/17 05:17:58;;;;;;;6.97;4.53;;;;;;;22.80;65.84;99831.16;5089889;28;20136;-61
2021/08/17 05:20:24;;;;;;;6.82;4.20;;;;;;;22.92;64.96;99823.03;5090126;28;20058;-61
2021/08/17 05:22:50;;;;;;;14.48;4.97;;;;;;;23.07;64.09;99815.28;5089894;28;20470;-60
2021/08/17 05:25:17;;;;;;;8.90;4.25;;;;;;;23.12;63.59;99791.66;5090216;28;20059;-61
2021/08/17 05:27:43;;;;;;;7.40;4.43;;;;;;;23.31;63.35;99798.81;5090260;28;20103;-61
2021/08/17 05:30:09;;;;;;;10.02;4.32;;;;;;;;;;5090461;28;20073;-62
2021/08/17 05:32:34;;;;;;;8.88;4.50;;;;;;;23.57;61.64;99759.34;5090078;28;20028;-62
2021/08/17 05:35:01;;;;;;;14.48;4.57;;;;;;;23.68;60.82;99764.00;5074986;28;20032;-62
2021/08/17 05:37:27;;;;;;;17.45;5.15;;;;;;;23.79;60.45;99765.94;5093965;28;20031;-62
2021/08/17 05:39:52;;;;;;;13.68;4.20;;;;;;;23.91;59.40;99747.66;5093489;28;20254;-62
2021/08/17 05:42:18;;;;;;;9.20;4.22;;;;;;;24.00;58.90;99724.34;5094582;28;20105;-62
2021/08/17 05:44:44;;;;;;;9.80;4.85;;;;;;;24.06;58.33;99728.91;5093550;28;20042;-62
2021/08/17 05:47:11;;;;;;;9.82;4.00;;;;;;;24.18;58.13;99727.84;5093847;28;20103;-62
2021/08/17 05:49:37;;;;;;;8.88;4.10;;;;;;;24.29;57.73;99731.66;5093358;28;20035;-63
2021/08/17 05:52:14;;;;;;;8.30;4.03;;;;;;;24.35;57.35;99726.06;5093677;28;20645;-63
2021/08/17 05:54:40;;;;;;;9.27;4.68;;;;;;;24.55;56.54;99744.06;5093778;28;20028;-63
2021/08/17 05:57:06;;;;;;;7.85;4.50;;;;;;;24.67;55.97;99775.94;5093413;28;20092;-63
2021/08/17 05:59:32;;;;;;;8.88;3.90;;;;;;;24.70;55.67;99807.53;5093557;28;20032;-64
2021/08/17 06:01:59;;;;;;;11.07;4.32;;;;;;;24.81;55.80;99821.25;5093144;28;20499;-63
2021/08/17 06:04:25;;;;;;;5.38;3.58;;;;;;;24.93;55.05;99840.47;5093495;28;20020;-63
2021/08/17 06:06:51;;;;;;;11.07;4.13;;;;;;;24.99;55.64;99861.47;5093254;28;20115;-61
2021/08/17 06:44:28;;;;;;;6.78;3.65;;;;;;;23.76;63.06;99909.69;5129524;27;20403;-64
2021/08/17 06:46:53;;;;;;;7.90;3.47;;;;;;;23.82;62.14;99933.41;5129531;27;20378;-63
2021/08/17 06:49:19;;;;;;;10.90;4.63;;;;;;;23.83;62.15;99959.72;5128287;27;20024;-65
2021/08/17 06:51:44;;;;;;;6.00;3.45;;;;;;;23.72;62.63;99938.59;5130147;27;20084;-63
2021/08/17 06:54:10;;;;;;;9.00;3.78;;;;;;;23.71;63.18;99923.25;5129519;27;20030;-64
2021/08/17 06:56:35;;;;;;;6.07;3.80;;;;;;;23.62;63.79;99907.31;5129596;27;20062;-63
2021/08/17 06:59:01;;;;;;;6.47;2.97;;;;;;;23.60;64.25;99928.66;5129421;27;20470;-64
2021/08/17 07:01:26;;;;;;;5.22;3.20;;;;;;;23.51;65.38;99935.47;5129041;27;20019;-64
2021/08/17 07:03:52;;;;;;;11.48;4.15;;;;;;;23.39;66.23;99946.34;5128831;27;20458;-64
2021/08/17 07:06:20;;;;;;;12.45;4.05;;;;;;;23.28;67.07;99951.72;5129640;27;20027;-64
2021/08/17 07:08:46;;;;;;;8.45;4.15;;;;;;;23.19;67.97;99973.03;5128314;27;20125;-64
2021/08/17 07:11:11;;;;;;;9.07;4.07;;;;;;;22.99;69.13;99955.13;5127760;28;20035;-62
2021/08/17 07:13:37;;;;;;;5.22;3.60;;;;;;;22.91;70.31;100008.19;5128937;27;20023;-63
2021/08/17 07:16:03;;;;;;;6.60;3.92;;;;;;;22.77;71.50;100001.16;5127459;27;20538;-63
2021/08/17 07:18:29;;;;;;;6.00;3.60;;;;;;;22.67;74.49;99965.25;5128543;27;20015;-66
2021/08/17 07:20:54;;;;;;;7.53;4.05;;;;;;;22.53;76.31;99949.97;5127382;27;20028;-65
2021/08/17 07:23:20;;;;;;;8.80;4.05;;;;;;;22.43;77.43;100007.00;5129055;27;20023;-65
2021/08/17 07:25:45;;;;;;;9.65;3.90;;;;;;;22.35;78.73;100051.81;5127368;27;20027;-66
2021/08/17 07:28:11;;;;;;;6.60;4.30;;;;;;;22.20;79.82;100048.53;5127352;27;20039;-65
2021/08/17 07:30:41;;;;;;;7.10;4.13;;;;;;;22.09;81.65;100067.47;5128533;27;20019;-66
2021/08/17 07:33:06;;;;;;;13.38;5.72;;;;;;;21.91;83.61;100097.34;5128250;27;20020;-66
2021/08/17 07:35:32;;;;;;;11.88;4.57;;;;;;;21.72;85.92;100114.53;5127179;28;20488;-65
2021/08/17 07:37:58;;;;;;;12.85;4.93;;;;;;;21.57;86.72;100081.19;5128310;27;20035;-65
2021/08/17 07:40:24;;;;;;;14.23;5.38;;;;;;;21.42;88.60;100058.72;5128499;27;20417;-65
2021/08/17 07:42:50;;;;;;;7.68;4.90;;;;;;;21.24;90.25;100074.88;5128320;27;20040;-65
2021/08/17 07:45:16;;;;;;;10.30;4.85;;;;;;;21.15;90.10;100084.31;5115023;27;20096;-65
2021/08/17 07:47:42;;;;;;;8.05;5.43;;;;;;;21.13;89.99;100102.78;5114193;28;20043;-65
2021/08/17 07:50:10;;;;;;;7.22;4.57;;;;;;;21.05;90.46;100111.16;5114549;28;20094;-65
2021/08/17 07:52:36;;;;;;;8.77;5.53;;;;;;;20.98;90.66;100107.56;5113125;28;20026;-65
2021/08/17 07:55:03;;;;;;;7.10;4.35;;;;;;;20.83;92.20;100112.34;5114831;28;20015;-65
2021/08/17 07:57:29;;;;;;;8.32;5.53;;;;;;;20.78;92.18;100133.91;5114299;28;20031;-66
2021/08/17 07:59:57;;;;;;;7.13;4.93;;;;;;;20.75;91.72;100131.59;5113080;28;20494;-66
2021/08/17 08:02:22;;;;;;;7.30;4.90;;;;;;;20.66;92.00;100127.38;5114497;28;20024;-65
2021/08/17 08:04:48;;;;;;;9.75;4.20;;;;;;;20.63;94.36;100111.44;5114054;28;20037;-65
2021/08/17 08:07:13;;;;;;;7.80;4.30;;;;;;;20.56;94.51;100086.00;5114118;28;20034;-65
2021/08/17 08:09:38;;;;;;;7.93;4.93;;;;;;;20.55;93.91;100082.47;5114076;28;20024;-66
2021/08/17 08:12:05;;;;;;;8.15;4.68;;;;;;;20.51;94.00;100074.91;5114001;28;20066;-66
2021/08/17 08:14:30;;;;;;;12.32;5.28;;;;;;;20.49;94.12;100077.84;5113994;28;20103;-65
2021/08/17 08:16:58;;;;;;;7.47;4.80;;;;;;;20.56;93.81;100077.84;5113854;28;20115;-65
2021/08/17 08:19:24;;;;;;;9.07;4.53;;;;;;;20.49;93.46;100093.34;5112859;28;20023;-66
2021/08/17 08:21:49;;;;;;;10.07;4.03;;;;;;;20.46;92.74;100107.38;5113961;28;20072;-67
2021/08/17 08:24:14;;;;;;;7.05;4.35;;;;;;;20.43;93.54;100115.94;5112691;28;20058;-67
2021/08/17 08:26:40;;;;;;;8.27;4.47;;;;;;;20.45;94.66;100120.16;5113670;28;20028;-67
2021/08/17 08:29:06;;;;;;;6.93;4.78;;;;;;;20.43;94.65;100121.38;5113745;28;20041;-66
2021/08/17 08:31:31;;;;;;;7.25;4.60;;;;;;;20.39;95.05;100131.00;5112487;28;20118;-66
2021/08/17 08:33:57;;;;;;;10.02;5.22;;;;;;;20.36;95.97;100136.88;5113549;28;20023;-67
2021/08/17 08:36:22;;;;;;;9.35;5.07;;;;;;;20.34;96.59;100122.63;5112748;28;20119;-66
2021/08/17 08:38:48;;;;;;;7.43;4.80;;;;;;;20.38;97.32;100105.69;5113459;28;20023;-67
2021/08/17 08:41:16;;;;;;;6.65;4.82;;;;;;;20.36;98.09;100072.34;5113903;28;20024;-66
2021/08/17 08:43:45;;;;;;;10.88;5.05;;;;;;;20.39;97.55;100033.78;5113203;28;20044;-66
2021/08/17 08:46:20;;;;;;;7.75;4.95;;;;;;;20.39;95.89;100043.84;5112068;28;20118;-67
2021/08/17 08:48:48;;;;;;;9.07;4.45;;;;;;;20.42;95.59;100128.75;5113269;27;20034;-67
2021/08/17 08:51:16;;;;;;;6.60;4.50;;;;;;;20.40;95.67;100162.66;5113394;28;20031;-64
2021/08/17 08:53:42;;;;;;;7.35;4.88;;;;;;;20.41;97.20;100186.16;5113201;28;20031;-65
2021/08/17 08:56:08;;;;;;;8.95;5.10;;;;;;;20.38;97.87;100201.03;5112238;28;20027;-65
2021/08/17 08:58:33;;;;;;;7.47;4.72;;;;;;;20.37;98.56;100180.25;5113174;28;20102;-64
2021/08/17 09:00:59;;;;;;;10.88;4.63;;;;;;;20.35;98.87;100160.56;5113375;28;20538;-65
2021/08/17 09:03:44;;;;;;;10.40;5.45;;;;;;;20.35;97.58;100173.34;5113317;28;20028;-65
2021/08/17 09:06:26;;;;;;;9.05;4.68;;;;;;;20.31;97.12;100170.16;5113052;28;20024;-65
2021/08/17 09:09:13;;;;;;;8.15;4.60;;;;;;;20.25;96.53;100170.13;5113026;28;20129;-65
2021/08/17 09:11:41;;;;;;;7.25;4.88;;;;;;;20.23;96.44;100174.94;5113058;28;20063;-66
2021/08/17 09:14:29;;;;;;;6.93;4.68;;;;;;;20.19;97.23;100183.50;5112935;28;20024;-65
2021/08/17 09:17:02;;;;;;;7.10;4.78;;;;;;;20.16;97.64;100175.72;5112963;27;20046;-64
2021/08/17 09:19:28;;;;;;;6.90;4.95;;;;;;;20.12;98.29;100198.13;5111538;28;20122;-65
2021/08/17 09:21:57;;;;;;;7.80;5.10;;;;;;;20.10;98.61;100206.47;5113117;28;20076;-64
2021/08/17 09:24:28;;;;;;;5.50;4.38;;;;;;;20.11;99.01;100249.03;5111553;28;20114;-62
2021/08/17 09:26:56;;;;;;;7.32;4.93;;;;;;;20.13;100.00;100262.44;5112761;28;20027;-60
2021/08/17 09:29:30;;;;;;;8.02;4.85;;;;;;;20.14;100.00;100226.84;5112251;28;20114;-60
2021/08/17 09:31:58;;;;;;;7.93;5.40;;;;;;;20.23;100.00;100216.63;5112582;28;20432;-60
2021/08/17 09:34:34;;;;;;;6.05;4.80;;;;;;;20.37;96.55;100225.75;5112512;28;20382;-61
2021/08/17 09:37:05;;;;;;;6.97;4.90;;;;;;;20.32;97.14;100206.44;5112279;28;20019;-61
2021/08/17 09:39:39;;;;;;;6.38;4.70;;;;;;;20.35;98.17;100186.97;5112536;28;20482;-60
2021/08/17 09:42:15;;;;;;;6.07;4.40;;;;;;;20.39;97.00;100167.28;5111857;28;20031;-60
2021/08/17 09:44:42;;;;;;;7.22;4.32;;;;;;;20.45;95.93;100173.81;5112209;28;20027;-61
2021/08/17 09:47:07;;;;;;;7.50;4.45;;;;;;;20.45;95.54;100207.34;5112146;28;20444;-61
2021/08/17 09:49:34;;;;;;;7.32;4.38;;;;;;;20.45;94.95;100255.53;5111999;28;20027;-61
2021/08/17 09:52:09;;;;;;;6.72;4.03;;;;;;;20.48;95.98;100266.91;5112526;28;20079;-61
2021/08/17 09:54:40;;;;;;;5.32;4.25;;;;;;;20.55;96.25;100261.47;5110651;28;20160;-60
2021/08/17 09:57:07;;;;;;;5.43;3.78;;;;;;;20.56;96.65;100228.59;5111923;28;20542;-60
2021/08/17 09:59:36;;;;;;;7.47;4.35;;;;;;;20.59;97.17;100239.09;5111956;28;20063;-60
2021/08/17 10:02:02;;;;;;;5.50;3.90;;;;;;;20.59;96.72;100249.13;5111735;28;20100;-60
2021/08/17 10:04:28;;;;;;;6.47;4.28;;;;;;;20.53;97.28;100247.22;5112177;28;20444;-60
2021/08/17 10:06:56;;;;;;;5.43;4.03;;;;;;;20.65;96.61;100265.53;5110056;28;20034;-60
2021/08/17 10:09:23;;;;;;;6.63;3.10;;;;;;;20.68;96.06;100253.38;5111746;28;20026;-60
2021/08/17 10:11:49;;;;;;;4.75;3.13;;;;;;;20.68;94.47;100251.50;5111758;28;20031;-61
2021/08/17 10:14:15;;;;;;;5.07;3.22;;;;;;;20.70;94.30;100257.59;5111737;28;20062;-61
2021/08/17 10:16:42;;;;;;;4.20;3.20;;;;;;;20.72;93.12;100296.41;5111730;28;20486;-61
2021/08/17 10:19:09;;;;;;;5.13;3.45;;;;;;;20.72;94.19;100322.81;5111933;28;20099;-61
2021/08/17 10:21:39;;;;;;;7.47;3.38;;;;;;;20.67;94.78;100307.03;5111681;28;20027;-61
2021/08/17 10:24:23;;;;;;;7.45;3.13;;;;;;;20.65;94.62;100294.66;5111540;28;20023;-61
2021/08/17 10:26:49;;;;;;;5.28;3.03;;;;;;;20.58;93.95;100297.38;5110227;28;20060;-61
2021/08/17 10:29:29;;;;;;;5.15;2.70;;;;;;;20.60;92.94;100310.78;5111603;28;20031;-62
2021/08/17 10:31:55;;;;;;;6.80;2.53;;;;;;;20.57;91.79;100297.56;5111786;28;20056;-61
2021/08/17 10:34:36;;;;;;;2.92;1.92;;;;;;;20.54;89.28;100300.69;5111488;28;20110;-61
2021/08/17 10:37:21;;;;;;;5.45;2.10;;;;;;;20.45;89.08;100305.44;5111899;28;20027;-60
2021/08/17 10:39:47;;;;;;;3.10;1.70;;;;;;;20.38;87.99;100303.72;5111485;28;20028;-61
2021/08/17 10:42:26;;;;;;;2.22;1.38;;;;;;;20.31;88.17;100300.09;5111113;28;20080;-60
2021/08/17 10:44:53;;;;;;;7.78;2.00;;;;;;;20.25;89.29;100276.38;5111353;28;20031;-61
2021/08/17 10:47:33;;;;;;;4.25;1.50;;;;;;;20.25;87.68;100260.03;5111536;28;20416;-61
2021/08/17 10:50:00;;;;;;;2.47;1.25;;;;;;;20.26;84.32;100286.22;5110100;28;20119;-61
2021/08/17 10:52:37;;;;;;;3.47;1.25;;;;;;;20.30;81.95;100317.47;5093102;28;20024;-61
2021/08/17 10:55:19;;;;;;;2.03;1.23;;;;;;;20.29;81.56;100332.13;5125518;27;20031;-61
2021/08/17 10:58:06;;;;;;;1.70;1.13;;;;;;;20.26;81.13;100330.66;5115949;27;20049;-61
2021/08/17 11:00:46;;;;;;;1.65;1.30;;;;;;;20.26;80.92;100333.38;5131419;27;20015;-62
2021/08/17 11:03:12;;;;;;;3.55;1.40;;;;;;;20.19;77.52;100313.41;5129888;27;20393;-61
2021/08/17 11:05:54;;;;;;;2.40;1.38;;;;;;;20.28;75.79;100312.19;5131207;27;20474;-62
2021/08/17 11:08:48;;;;;;;5.35;1.40;;;;;;;20.36;75.32;100312.06;5131392;27;20023;-61
2021/08/17 11:11:21;;;;;;;1.50;1.08;;;;;;;20.38;76.84;100303.72;5117633;27;20089;-61
2021/08/17 11:14:08;;;;;;;4.10;1.63;;;;;;;20.41;75.95;100300.59;5131375;27;20054;-61
2021/08/17 11:16:38;;;;;;;2.08;1.40;;;;;;;20.41;76.23;100308.75;5131416;27;20358;-61
2021/08/17 11:19:04;;;;;;;3.10;1.50;;;;;;;20.39;77.48;100311.69;5132367;27;20023;-61
2021/08/17 11:21:48;;;;;;;2.22;1.40;;;;;;;20.39;76.15;100332.63;5135427;27;20452;-61
2021/08/17 11:24:16;;;;;;;1.88;1.40;;;;;;;20.35;76.11;100337.66;5135015;27;20020;-61
2021/08/17 11:26:51;;;;;;;2.75;1.67;;;;;;;20.34;76.68;100335.13;5135179;27;20019;-62
2021/08/17 11:29:28;;;;;;;5.07;1.77;;;;;;;20.33;77.22;100325.25;5135277;27;20027;-61
2021/08/17 11:31:55;;;;;;;2.67;1.20;;;;;;;20.34;74.37;100324.22;5135264;27;20023;-61
2021/08/17 11:34:24;;;;;;;2.47;1.25;;;;;;;20.34;72.45;100322.31;5134900;27;20023;-61
2021/08/17 11:36:52;;;;;;;3.47;1.23;;;;;;;20.40;72.41;100326.13;5134827;27;20031;-61
2021/08/17 11:39:24;;;;;;;7.90;1.33;;;;;;;20.40;71.95;100317.94;5134790;27;20069;-61
2021/08/17 11:41:51;;;;;;;3.10;1.70;;;;;;;20.38;71.94;100314.59;5134672;27;20027;-61
2021/08/17 11:44:18;;;;;;;2.17;1.23;;;;;;;20.40;72.97;100317.94;5134990;27;20051;-61
2021/08/17 11:46:44;;;;;;;1.83;1.33;;;;;;;20.41;73.02;100306.84;5134673;27;20035;-62
2021/08/17 11:49:28;;;;;;;2.72;1.30;;;;;;;20.39;73.06;100308.09;5134535;27;20027;-61
2021/08/17 11:52:09;;;;;;;2.90;1.42;;;;;;;20.39;71.32;100328.03;5134633;27;20042;-60
2021/08/17 11:54:43;;;;;;;2.03;1.50;;;;;;;20.36;72.30;100344.78;5134561;27;20029;-59
2021/08/17 11:57:08;;;;;;;2.72;1.77;;;;;;;20.34;72.65;100349.56;5134475;27;20031;-59
2021/08/17 11:59:45;;;;;;;3.58;1.52;;;;;;;20.30;68.37;100344.69;5134493;27;20092;-61
2021/08/17 12:02:17;;;;;;;3.60;1.65;;;;;;;20.35;63.13;100354.00;5134296;27;20064;-61
2021/08/17 12:04:58;;;;;;;5.47;1.77;;;;;;;20.26;63.04;100357.03;5134369;27;20394;-60
2021/08/17 12:07:26;;;;;;;2.25;1.42;;;;;;;20.23;61.97;100365.59;5134464;27;20023;-61